createdAt,value
2023-04-24T00:01:15.071Z,0
2023-04-24T00:02:30.021Z,0
2023-04-24T00:03:46.217Z,0
2023-04-24T00:05:02.653Z,0
2023-04-24T00:06:18.840Z,0
2023-04-24T00:07:35.039Z,0
2023-04-24T00:08:51.209Z,0
2023-04-24T00:10:07.152Z,0
2023-04-24T00:11:23.345Z,0
2023-04-24T00:12:39.528Z,0
2023-04-24T00:13:55.725Z,0
2023-04-24T00:15:11.916Z,0
2023-04-24T00:16:28.114Z,0
2023-04-24T00:17:44.532Z,0
2023-04-24T00:18:59.749Z,0
2023-04-24T00:20:15.938Z,0
2023-04-24T00:21:32.126Z,0
2023-04-24T00:22:48.052Z,0
2023-04-24T00:24:04.501Z,0
2023-04-24T00:25:20.450Z,0
2023-04-24T00:26:36.881Z,0
2023-04-24T00:27:52.812Z,0
2023-04-24T00:30:25.192Z,0
2023-04-24T00:31:41.377Z,0
2023-04-24T00:32:57.566Z,0
2023-04-24T00:34:14.018Z,0
2023-04-24T00:35:29.214Z,0
2023-04-24T00:36:45.162Z,0
2023-04-24T00:38:01.598Z,0
2023-04-24T00:39:17.532Z,0
2023-04-24T00:40:33.725Z,0
2023-04-24T00:41:49.913Z,0
2023-04-24T00:43:06.345Z,0
2023-04-24T00:44:22.543Z,0
2023-04-24T00:45:38.482Z,0
2023-04-24T00:46:54.907Z,0
2023-04-24T00:48:11.113Z,0
2023-04-24T00:49:27.034Z,0
2023-04-24T00:50:43.489Z,0
2023-04-24T00:51:58.691Z,0
2023-04-24T00:53:14.627Z,0
2023-04-24T00:54:30.803Z,0
2023-04-24T00:55:46.997Z,0
2023-04-24T00:57:03.444Z,0
2023-04-24T00:58:19.635Z,0
2023-04-24T00:59:35.812Z,0
2023-04-24T01:00:51.754Z,0
2023-04-24T01:02:08.204Z,0
2023-04-24T01:03:24.138Z,0
2023-04-24T01:04:40.577Z,0
2023-04-24T01:05:56.756Z,0
2023-04-24T01:07:12.698Z,0
2023-04-24T01:08:28.152Z,0
2023-04-24T01:09:44.342Z,0
2023-04-24T01:11:00.533Z,0
2023-04-24T01:12:16.723Z,0
2023-04-24T01:13:32.923Z,0
2023-04-24T01:14:49.113Z,0
2023-04-24T01:16:05.039Z,0
2023-04-24T01:17:21.479Z,0
2023-04-24T01:18:37.406Z,0
2023-04-24T01:19:53.606Z,0
2023-04-24T01:21:09.776Z,0
2023-04-24T01:22:26.237Z,0
2023-04-24T01:23:42.430Z,0
2023-04-24T01:24:57.633Z,0
2023-04-24T01:26:13.547Z,0
2023-04-24T01:27:29.738Z,0
2023-04-24T01:28:46.195Z,0
2023-04-24T01:30:02.120Z,0
2023-04-24T01:31:18.583Z,0
2023-04-24T01:32:34.493Z,0
2023-04-24T01:33:50.961Z,0
2023-04-24T01:35:07.149Z,0
2023-04-24T01:36:23.330Z,0
2023-04-24T01:37:39.519Z,0
2023-04-24T01:38:55.709Z,0
2023-04-24T01:40:11.892Z,0
2023-04-24T01:41:26.832Z,0
2023-04-24T01:42:43.023Z,0
2023-04-24T01:43:59.482Z,0
2023-04-24T01:45:15.395Z,0
2023-04-24T01:46:31.861Z,0
2023-04-24T01:47:48.042Z,0
2023-04-24T01:49:03.969Z,0
2023-04-24T01:50:20.416Z,0
2023-04-24T01:51:36.605Z,0
2023-04-24T01:52:52.532Z,0
2023-04-24T01:54:08.711Z,0
2023-04-24T01:55:25.170Z,0
2023-04-24T01:56:41.099Z,0
2023-04-24T01:57:56.296Z,0
2023-04-24T01:59:12.490Z,0
2023-04-24T02:00:28.948Z,0
2023-04-24T02:01:45.133Z,0
2023-04-24T02:03:01.320Z,0
2023-04-24T02:04:17.247Z,0
2023-04-24T02:05:33.440Z,0
2023-04-24T02:06:49.890Z,0
2023-04-24T02:08:05.813Z,0
2023-04-24T02:09:22.265Z,0
2023-04-24T02:10:38.186Z,0
2023-04-24T02:11:54.377Z,0
2023-04-24T02:13:10.845Z,0
2023-04-24T02:14:26.036Z,0
2023-04-24T02:15:42.226Z,0
2023-04-24T02:16:58.142Z,0
2023-04-24T02:18:14.342Z,0
2023-04-24T02:19:30.523Z,0
2023-04-24T02:20:46.989Z,0
2023-04-24T02:22:03.182Z,0
2023-04-24T02:23:19.099Z,0
2023-04-24T02:24:35.548Z,0
2023-04-24T02:25:51.748Z,0
2023-04-24T02:27:07.664Z,0
2023-04-24T02:28:24.120Z,0
2023-04-24T02:29:40.032Z,0
2023-04-24T02:30:55.509Z,0
2023-04-24T02:32:11.704Z,0
2023-04-24T02:33:27.893Z,0
2023-04-24T02:34:44.084Z,0
2023-04-24T02:35:59.987Z,0
2023-04-24T02:37:16.463Z,0
2023-04-24T02:38:32.652Z,0
2023-04-24T02:39:48.843Z,0
2023-04-24T02:41:05.022Z,0
2023-04-24T02:42:21.225Z,0
2023-04-24T02:43:37.412Z,0
2023-04-24T02:44:53.585Z,0
2023-04-24T02:46:09.780Z,0
2023-04-24T02:47:24.997Z,0
2023-04-24T02:48:40.897Z,0
2023-04-24T02:49:57.086Z,0
2023-04-24T02:51:13.272Z,0
2023-04-24T02:52:29.732Z,0
2023-04-24T02:53:45.926Z,0
2023-04-24T02:55:02.112Z,0
2023-04-24T02:56:18.031Z,0
2023-04-24T02:57:34.219Z,0
2023-04-24T02:58:50.688Z,0
2023-04-24T03:00:06.880Z,0
2023-04-24T03:01:22.778Z,0
2023-04-24T03:02:39.259Z,0
2023-04-24T03:03:54.166Z,0
2023-04-24T03:05:10.370Z,0
2023-04-24T03:06:26.839Z,0
2023-04-24T03:07:43.020Z,0
2023-04-24T03:08:59.211Z,0
2023-04-24T03:10:15.393Z,0
2023-04-24T03:11:31.589Z,0
2023-04-24T03:12:47.775Z,0
2023-04-24T03:14:03.687Z,0
2023-04-24T03:15:20.151Z,0
2023-04-24T03:16:36.344Z,0
2023-04-24T03:17:52.542Z,0
2023-04-24T03:19:08.725Z,0
2023-04-24T03:20:23.924Z,0
2023-04-24T03:21:39.833Z,0
2023-04-24T03:22:56.305Z,0
2023-04-24T03:24:12.505Z,0
2023-04-24T03:25:28.684Z,0
2023-04-24T03:26:44.579Z,0
2023-04-24T03:28:00.780Z,0
2023-04-24T03:29:17.249Z,0
2023-04-24T03:30:33.431Z,0
2023-04-24T03:31:49.628Z,0
2023-04-24T03:33:05.825Z,0
2023-04-24T03:34:21.705Z,0
2023-04-24T03:35:38.201Z,0
2023-04-24T03:36:53.114Z,0
2023-04-24T03:38:09.596Z,0
2023-04-24T03:39:25.477Z,0
2023-04-24T03:40:41.669Z,0
2023-04-24T03:41:58.151Z,0
2023-04-24T03:43:14.046Z,0
2023-04-24T03:44:30.537Z,0
2023-04-24T03:45:46.730Z,0
2023-04-24T03:47:02.920Z,0
2023-04-24T03:48:19.103Z,0
2023-04-24T03:49:35.291Z,0
2023-04-24T03:50:51.181Z,0
2023-04-24T03:52:07.374Z,0
2023-04-24T03:53:22.880Z,0
2023-04-24T03:54:38.773Z,0
2023-04-24T03:55:55.244Z,0
2023-04-24T03:57:11.447Z,0
2023-04-24T03:58:27.322Z,0
2023-04-24T03:59:43.824Z,0
2023-04-24T04:00:59.018Z,0
2023-04-24T04:02:15.219Z,0
2023-04-24T04:03:31.405Z,0
2023-04-24T04:04:47.292Z,0
2023-04-24T04:06:03.491Z,0
2023-04-24T04:07:19.969Z,0
2023-04-24T04:08:36.158Z,0
2023-04-24T04:09:52.342Z,0
2023-04-24T04:11:08.545Z,0
2023-04-24T04:12:24.731Z,0
2023-04-24T04:13:40.909Z,0
2023-04-24T04:14:56.798Z,0
2023-04-24T04:16:13.286Z,0
2023-04-24T04:17:28.206Z,0
2023-04-24T04:18:44.389Z,0
2023-04-24T04:20:00.884Z,0
2023-04-24T04:21:16.765Z,5
2023-04-24T04:22:33.242Z,5
2023-04-24T04:23:49.436Z,5
2023-04-24T04:25:05.582Z,5
2023-04-24T04:26:21.753Z,5
2023-04-24T04:27:38.007Z,5
2023-04-24T04:28:54.139Z,5
2023-04-24T04:30:10.323Z,5
2023-04-24T04:31:26.554Z,5
2023-04-24T04:32:42.696Z,5
2023-04-24T04:33:57.890Z,5
2023-04-24T04:35:14.140Z,5
2023-04-24T04:36:30.280Z,5
2023-04-24T04:37:46.505Z,5
2023-04-24T04:39:02.701Z,5
2023-04-24T04:40:18.833Z,5
2023-04-24T04:41:35.023Z,5
2023-04-24T04:42:51.207Z,11
2023-04-24T04:44:07.396Z,11
2023-04-24T04:45:23.640Z,11
2023-04-24T04:46:39.824Z,11
2023-04-24T04:47:56.015Z,16
2023-04-24T04:49:12.202Z,16
2023-04-24T04:50:27.391Z,16
2023-04-24T04:51:43.532Z,16
2023-04-24T04:52:59.764Z,22
2023-04-24T04:54:15.950Z,22
2023-04-24T04:55:32.094Z,22
2023-04-24T04:56:48.333Z,22
2023-04-24T04:58:04.529Z,28
2023-04-24T04:59:20.651Z,28
2023-04-24T05:00:36.889Z,28
2023-04-24T05:01:53.088Z,28
2023-04-24T05:03:09.276Z,28
2023-04-24T05:04:25.456Z,28
2023-04-24T05:05:41.637Z,28
2023-04-24T05:06:56.794Z,28
2023-04-24T05:08:12.964Z,28
2023-04-24T05:09:29.211Z,28
2023-04-24T05:10:45.410Z,28
2023-04-24T05:12:01.540Z,33
2023-04-24T05:13:17.774Z,33
2023-04-24T05:14:33.904Z,33
2023-04-24T05:15:50.097Z,33
2023-04-24T05:17:06.343Z,33
2023-04-24T05:18:22.533Z,39
2023-04-24T05:19:38.720Z,39
2023-04-24T05:20:54.844Z,39
2023-04-24T05:22:11.033Z,39
2023-04-24T05:23:26.304Z,39
2023-04-24T05:24:42.472Z,45
2023-04-24T05:25:58.664Z,39
2023-04-24T05:27:14.793Z,39
2023-04-24T05:28:31.036Z,39
2023-04-24T05:29:47.225Z,39
2023-04-24T05:31:03.424Z,39
2023-04-24T05:32:19.539Z,39
2023-04-24T05:33:35.733Z,50
2023-04-24T05:34:51.982Z,50
2023-04-24T05:36:08.103Z,45
2023-04-24T05:37:24.282Z,39
2023-04-24T05:38:40.465Z,39
2023-04-24T05:39:55.752Z,39
2023-04-24T05:41:11.935Z,39
2023-04-24T05:42:28.055Z,39
2023-04-24T05:43:44.233Z,39
2023-04-24T05:45:00.416Z,39
2023-04-24T05:46:16.603Z,45
2023-04-24T05:47:32.870Z,45
2023-04-24T05:48:48.984Z,45
2023-04-24T05:50:05.170Z,50
2023-04-24T05:51:21.354Z,50
2023-04-24T05:52:37.541Z,50
2023-04-24T05:53:53.735Z,50
2023-04-24T05:55:09.910Z,50
2023-04-24T05:56:25.202Z,50
2023-04-24T05:57:41.315Z,56
2023-04-24T05:58:57.500Z,56
2023-04-24T06:00:13.680Z,56
2023-04-24T06:01:29.872Z,56
2023-04-24T06:02:46.124Z,56
2023-04-24T06:04:02.322Z,56
2023-04-24T06:05:18.506Z,50
2023-04-24T06:06:34.611Z,50
2023-04-24T06:07:50.885Z,45
2023-04-24T06:09:06.984Z,45
2023-04-24T06:10:23.247Z,50
2023-04-24T06:11:39.375Z,50
2023-04-24T06:12:54.632Z,56
2023-04-24T06:14:10.750Z,50
2023-04-24T06:15:26.952Z,50
2023-04-24T06:16:43.195Z,50
2023-04-24T06:17:59.397Z,50
2023-04-24T06:19:15.513Z,50
2023-04-24T06:20:31.758Z,56
2023-04-24T06:21:47.874Z,56
2023-04-24T06:23:04.144Z,56
2023-04-24T06:24:20.253Z,56
2023-04-24T06:25:36.522Z,50
2023-04-24T06:26:52.620Z,39
2023-04-24T06:28:08.887Z,45
2023-04-24T06:29:24.084Z,45
2023-04-24T06:30:40.206Z,50
2023-04-24T06:31:56.390Z,56
2023-04-24T06:33:12.645Z,56
2023-04-24T06:34:28.838Z,67
2023-04-24T06:35:45.024Z,78
2023-04-24T06:37:01.135Z,90
2023-04-24T06:38:17.398Z,95
2023-04-24T06:39:33.585Z,106
2023-04-24T06:40:49.778Z,112
2023-04-24T06:42:05.952Z,112
2023-04-24T06:43:22.152Z,118
2023-04-24T06:44:38.246Z,118
2023-04-24T06:45:53.461Z,123
2023-04-24T06:47:09.719Z,129
2023-04-24T06:48:25.836Z,135
2023-04-24T06:49:42.025Z,135
2023-04-24T06:50:58.283Z,135
2023-04-24T06:52:14.477Z,129
2023-04-24T06:53:30.583Z,129
2023-04-24T06:54:46.845Z,123
2023-04-24T06:56:03.046Z,123
2023-04-24T06:57:19.133Z,118
2023-04-24T06:58:35.330Z,106
2023-04-24T06:59:51.521Z,101
2023-04-24T07:01:07.790Z,95
2023-04-24T07:02:22.905Z,90
2023-04-24T07:03:39.173Z,90
2023-04-24T07:04:55.367Z,84
2023-04-24T07:06:11.559Z,90
2023-04-24T07:07:27.744Z,78
2023-04-24T07:08:43.844Z,73
2023-04-24T07:10:00.102Z,67
2023-04-24T07:11:16.299Z,67
2023-04-24T07:12:32.396Z,61
2023-04-24T07:13:48.676Z,61
2023-04-24T07:15:04.762Z,67
2023-04-24T07:16:20.969Z,67
2023-04-24T07:17:37.149Z,73
2023-04-24T07:18:52.435Z,73
2023-04-24T07:20:08.619Z,67
2023-04-24T07:21:24.818Z,67
2023-04-24T07:22:40.993Z,73
2023-04-24T07:23:57.178Z,95
2023-04-24T07:25:13.293Z,112
2023-04-24T07:26:29.567Z,129
2023-04-24T07:27:45.743Z,129
2023-04-24T07:29:01.848Z,129
2023-04-24T07:30:18.034Z,135
2023-04-24T07:31:34.228Z,135
2023-04-24T07:32:50.492Z,123
2023-04-24T07:34:06.594Z,118
2023-04-24T07:35:22.901Z,118
2023-04-24T07:36:39.084Z,129
2023-04-24T07:37:55.376Z,123
2023-04-24T07:39:11.469Z,118
2023-04-24T07:40:27.651Z,101
2023-04-24T07:41:43.925Z,67
2023-04-24T07:43:00.027Z,56
2023-04-24T07:44:16.298Z,61
2023-04-24T07:45:32.486Z,61
2023-04-24T07:46:48.587Z,78
2023-04-24T07:48:04.778Z,78
2023-04-24T07:49:21.061Z,84
2023-04-24T07:50:37.239Z,84
2023-04-24T07:51:52.432Z,84
2023-04-24T07:53:08.637Z,84
2023-04-24T07:54:24.816Z,90
2023-04-24T07:55:41.013Z,84
2023-04-24T07:56:57.097Z,84
2023-04-24T07:58:13.371Z,78
2023-04-24T07:59:29.573Z,78
2023-04-24T08:00:45.747Z,78
2023-04-24T08:02:01.936Z,78
2023-04-24T08:03:18.134Z,78
2023-04-24T08:04:34.306Z,84
2023-04-24T08:05:50.410Z,106
2023-04-24T08:07:06.687Z,112
2023-04-24T08:08:21.884Z,118
2023-04-24T08:09:38.080Z,123
2023-04-24T08:10:54.257Z,129
2023-04-24T08:12:10.448Z,140
2023-04-24T08:13:26.637Z,146
2023-04-24T08:14:42.819Z,140
2023-04-24T08:15:58.028Z,135
2023-04-24T08:17:14.112Z,140
2023-04-24T08:18:30.304Z,140
2023-04-24T08:19:46.591Z,146
2023-04-24T08:21:02.782Z,157
2023-04-24T08:22:18.862Z,168
2023-04-24T08:23:35.161Z,185
2023-04-24T08:24:51.243Z,191
2023-04-24T08:26:07.535Z,191
2023-04-24T08:27:23.623Z,191
2023-04-24T08:28:39.905Z,180
2023-04-24T08:29:56.086Z,174
2023-04-24T08:31:12.185Z,163
2023-04-24T08:32:27.385Z,157
2023-04-24T08:33:43.662Z,157
2023-04-24T08:34:59.856Z,174
2023-04-24T08:36:16.036Z,185
2023-04-24T08:37:32.233Z,196
2023-04-24T08:38:48.310Z,196
2023-04-24T08:40:04.503Z,185
2023-04-24T08:41:20.785Z,180
2023-04-24T08:42:36.980Z,180
2023-04-24T08:43:53.065Z,196
2023-04-24T08:45:09.253Z,185
2023-04-24T08:46:25.551Z,168
2023-04-24T08:47:41.616Z,157
2023-04-24T08:48:56.927Z,157
2023-04-24T08:50:13.116Z,163
2023-04-24T08:51:29.318Z,168
2023-04-24T08:52:45.380Z,191
2023-04-24T08:54:01.585Z,196
2023-04-24T08:55:17.772Z,185
2023-04-24T08:56:33.940Z,174
2023-04-24T08:57:50.239Z,185
2023-04-24T08:59:06.440Z,196
2023-04-24T09:00:22.611Z,202
2023-04-24T09:01:38.806Z,219
2023-04-24T09:02:54.877Z,236
2023-04-24T09:04:11.064Z,241
2023-04-24T09:05:26.386Z,241
2023-04-24T09:06:42.460Z,236
2023-04-24T09:07:58.756Z,241
2023-04-24T09:09:14.832Z,225
2023-04-24T09:10:31.012Z,225
2023-04-24T09:11:47.328Z,213
2023-04-24T09:13:03.513Z,208
2023-04-24T09:14:19.700Z,213
2023-04-24T09:15:35.878Z,208
2023-04-24T09:16:51.955Z,213
2023-04-24T09:18:08.135Z,191
2023-04-24T09:19:24.334Z,163
2023-04-24T09:20:40.637Z,174
2023-04-24T09:21:55.710Z,174
2023-04-24T09:23:12.017Z,168
2023-04-24T09:24:28.210Z,157
2023-04-24T09:25:44.270Z,140
2023-04-24T09:27:00.587Z,112
2023-04-24T09:28:16.776Z,106
2023-04-24T09:29:32.846Z,101
2023-04-24T09:30:49.138Z,101
2023-04-24T09:32:05.223Z,95
2023-04-24T09:33:21.405Z,67
2023-04-24T09:34:37.584Z,50
2023-04-24T09:35:53.897Z,50
2023-04-24T09:37:10.069Z,45
2023-04-24T09:38:25.171Z,45
2023-04-24T09:39:41.477Z,45
2023-04-24T09:40:57.537Z,39
2023-04-24T09:42:13.733Z,45
2023-04-24T09:43:30.027Z,61
2023-04-24T09:44:46.209Z,90
2023-04-24T09:46:02.402Z,95
2023-04-24T09:47:18.473Z,101
2023-04-24T09:48:34.667Z,112
2023-04-24T09:49:50.970Z,118
2023-04-24T09:51:07.155Z,123
2023-04-24T09:52:23.346Z,168
2023-04-24T09:53:39.534Z,219
2023-04-24T09:54:54.606Z,225
2023-04-24T09:56:10.809Z,219
2023-04-24T09:57:26.974Z,225
2023-04-24T09:58:43.287Z,236
2023-04-24T09:59:59.357Z,236
2023-04-24T10:01:15.537Z,230
2023-04-24T10:02:31.844Z,236
2023-04-24T10:03:48.044Z,236
2023-04-24T10:05:04.233Z,236
2023-04-24T10:06:20.294Z,225
2023-04-24T10:07:36.476Z,208
2023-04-24T10:08:52.663Z,202
2023-04-24T10:10:08.981Z,208
2023-04-24T10:11:24.178Z,208
2023-04-24T10:12:40.240Z,225
2023-04-24T10:13:56.558Z,230
2023-04-24T10:15:12.746Z,213
2023-04-24T10:16:28.794Z,241
2023-04-24T10:17:45.108Z,270
2023-04-24T10:19:01.176Z,292
2023-04-24T10:20:17.366Z,281
2023-04-24T10:21:33.677Z,264
2023-04-24T10:22:49.858Z,253
2023-04-24T10:24:06.045Z,213
2023-04-24T10:25:22.106Z,202
2023-04-24T10:26:38.290Z,230
2023-04-24T10:27:53.493Z,286
2023-04-24T10:29:09.826Z,343
2023-04-24T10:30:25.882Z,365
2023-04-24T10:31:42.072Z,388
2023-04-24T10:32:58.240Z,405
2023-04-24T10:34:14.438Z,388
2023-04-24T10:35:30.621Z,376
2023-04-24T10:36:46.814Z,371
2023-04-24T10:38:03.005Z,405
2023-04-24T10:39:19.333Z,382
2023-04-24T10:40:35.499Z,315
2023-04-24T10:41:51.557Z,236
2023-04-24T10:43:07.873Z,151
2023-04-24T10:44:23.085Z,135
2023-04-24T10:45:39.136Z,123
2023-04-24T10:46:55.329Z,129
2023-04-24T10:48:11.641Z,157
2023-04-24T10:49:27.702Z,230
2023-04-24T10:50:44.009Z,275
2023-04-24T10:52:00.199Z,303
2023-04-24T10:53:16.382Z,309
2023-04-24T10:54:32.449Z,264
2023-04-24T10:55:48.768Z,191
2023-04-24T10:57:04.818Z,146
2023-04-24T10:58:21.142Z,140
2023-04-24T10:59:37.327Z,163
2023-04-24T11:00:52.523Z,168
2023-04-24T11:02:08.590Z,140
2023-04-24T11:03:24.766Z,135
2023-04-24T11:04:40.949Z,112
2023-04-24T11:05:57.223Z,129
2023-04-24T11:07:13.400Z,185
2023-04-24T11:08:29.589Z,258
2023-04-24T11:09:45.783Z,292
2023-04-24T11:11:01.961Z,303
2023-04-24T11:12:18.075Z,315
2023-04-24T11:13:34.263Z,326
2023-04-24T11:14:50.455Z,360
2023-04-24T11:16:06.628Z,405
2023-04-24T11:17:21.910Z,416
2023-04-24T11:18:38.111Z,405
2023-04-24T11:19:54.216Z,320
2023-04-24T11:21:10.473Z,281
2023-04-24T11:22:26.587Z,241
2023-04-24T11:23:42.774Z,174
2023-04-24T11:24:58.956Z,135
2023-04-24T11:26:15.153Z,95
2023-04-24T11:27:31.339Z,101
2023-04-24T11:28:47.520Z,95
2023-04-24T11:30:03.794Z,67
2023-04-24T11:31:19.904Z,50
2023-04-24T11:32:36.168Z,45
2023-04-24T11:33:51.372Z,45
2023-04-24T11:35:07.541Z,61
2023-04-24T11:36:23.651Z,84
2023-04-24T11:37:39.920Z,95
2023-04-24T11:38:56.105Z,95
2023-04-24T11:40:12.304Z,95
2023-04-24T11:41:28.408Z,101
2023-04-24T11:42:44.591Z,101
2023-04-24T11:44:00.869Z,101
2023-04-24T11:45:16.960Z,129
2023-04-24T11:46:33.241Z,208
2023-04-24T11:47:49.433Z,331
2023-04-24T11:49:05.526Z,562
2023-04-24T11:50:20.820Z,601
2023-04-24T11:51:37.009Z,540
2023-04-24T11:52:53.196Z,478
2023-04-24T11:54:09.285Z,568
2023-04-24T11:55:25.560Z,1108
2023-04-24T11:56:41.745Z,2694
2023-04-24T11:57:57.859Z,2683
2023-04-24T11:59:14.128Z,1440
2023-04-24T12:00:30.322Z,2598
2023-04-24T12:01:46.416Z,793
2023-04-24T12:03:02.688Z,528
2023-04-24T12:04:18.781Z,2396
2023-04-24T12:05:34.972Z,3048
2023-04-24T12:06:50.176Z,2936
2023-04-24T12:08:06.366Z,2936
2023-04-24T12:09:22.633Z,3110
2023-04-24T12:10:38.750Z,466
2023-04-24T12:11:55.010Z,337
2023-04-24T12:13:11.206Z,2390
2023-04-24T12:14:27.391Z,354
2023-04-24T12:15:43.576Z,376
2023-04-24T12:16:59.679Z,405
2023-04-24T12:18:15.950Z,455
2023-04-24T12:19:32.055Z,1080
2023-04-24T12:20:48.229Z,596
2023-04-24T12:22:04.432Z,2441
2023-04-24T12:23:19.634Z,2598
2023-04-24T12:24:35.910Z,3150
2023-04-24T12:25:51.994Z,3048
2023-04-24T12:27:08.189Z,3026
2023-04-24T12:28:24.367Z,3110
2023-04-24T12:29:40.643Z,292
2023-04-24T12:30:55.856Z,365
2023-04-24T12:32:11.965Z,410
2023-04-24T12:33:28.145Z,388
2023-04-24T12:34:44.416Z,551
2023-04-24T12:36:00.514Z,922
2023-04-24T12:37:16.802Z,607
2023-04-24T12:38:32.886Z,579
2023-04-24T12:39:49.179Z,635
2023-04-24T12:41:05.361Z,669
2023-04-24T12:42:21.544Z,641
2023-04-24T12:43:37.641Z,545
2023-04-24T12:44:53.835Z,821
2023-04-24T12:46:10.115Z,382
2023-04-24T12:47:25.314Z,281
2023-04-24T12:48:41.409Z,225
2023-04-24T12:49:57.691Z,202
2023-04-24T12:51:13.787Z,247
2023-04-24T12:52:29.973Z,821
2023-04-24T12:53:46.251Z,556
2023-04-24T12:55:02.349Z,371
2023-04-24T12:56:18.522Z,360
2023-04-24T12:57:34.717Z,292
2023-04-24T12:58:50.899Z,376
2023-04-24T13:00:07.189Z,455
2023-04-24T13:01:23.272Z,956
2023-04-24T13:02:39.552Z,1046
2023-04-24T13:03:54.664Z,1428
2023-04-24T13:05:10.850Z,1760
2023-04-24T13:06:27.133Z,2756
2023-04-24T13:07:43.223Z,478
2023-04-24T13:08:59.507Z,877
2023-04-24T13:10:15.596Z,2711
2023-04-24T13:11:31.892Z,2823
2023-04-24T13:12:48.063Z,545
2023-04-24T13:14:04.152Z,405
2023-04-24T13:15:20.451Z,444
2023-04-24T13:16:36.625Z,1929
2023-04-24T13:17:52.718Z,1816
2023-04-24T13:19:09.009Z,2553
2023-04-24T13:20:24.203Z,1507
2023-04-24T13:21:40.304Z,2120
2023-04-24T13:22:56.486Z,1923
2023-04-24T13:24:12.762Z,2205
2023-04-24T13:25:28.953Z,2531
2023-04-24T13:26:45.147Z,2638
2023-04-24T13:28:01.227Z,2081
2023-04-24T13:29:17.413Z,1755
2023-04-24T13:30:33.716Z,2694
2023-04-24T13:31:49.888Z,2289
2023-04-24T13:33:05.980Z,2548
2023-04-24T13:34:22.173Z,2216
2023-04-24T13:35:38.352Z,1575
2023-04-24T13:36:53.565Z,1873
2023-04-24T13:38:09.739Z,354
2023-04-24T13:39:26.037Z,365
2023-04-24T13:40:42.217Z,911
2023-04-24T13:41:58.315Z,1698
2023-04-24T13:43:14.498Z,1980
2023-04-24T13:44:30.680Z,2182
2023-04-24T13:45:46.862Z,2356
2023-04-24T13:47:03.049Z,2317
2023-04-24T13:48:19.250Z,2379
2023-04-24T13:49:35.526Z,1732
2023-04-24T13:50:51.622Z,1563
2023-04-24T13:52:07.916Z,2278
2023-04-24T13:53:23.110Z,2193
2023-04-24T13:54:39.303Z,2092
2023-04-24T13:55:55.490Z,2238
2023-04-24T13:57:11.677Z,2407
2023-04-24T13:58:27.756Z,1755
2023-04-24T13:59:43.952Z,2036
2023-04-24T14:01:00.146Z,1423
2023-04-24T14:02:16.326Z,1968
2023-04-24T14:03:32.512Z,2064
2023-04-24T14:04:48.703Z,1749
2023-04-24T14:06:05.012Z,1884
2023-04-24T14:07:21.090Z,1946
2023-04-24T14:08:37.382Z,478
2023-04-24T14:09:52.592Z,1980
2023-04-24T14:11:08.657Z,2126
2023-04-24T14:12:24.849Z,2356
2023-04-24T14:13:41.050Z,2199
2023-04-24T14:14:57.223Z,315
2023-04-24T14:16:13.536Z,298
2023-04-24T14:17:29.708Z,371
2023-04-24T14:18:45.902Z,1800
2023-04-24T14:20:02.104Z,1130
2023-04-24T14:21:18.180Z,1811
2023-04-24T14:22:34.463Z,2182
2023-04-24T14:23:50.658Z,331
2023-04-24T14:25:06.727Z,264
2023-04-24T14:26:21.948Z,270
2023-04-24T14:27:38.135Z,286
2023-04-24T14:28:54.424Z,2053
2023-04-24T14:30:10.506Z,1980
2023-04-24T14:31:26.817Z,1867
2023-04-24T14:32:43.007Z,1805
2023-04-24T14:33:59.073Z,1890
2023-04-24T14:35:15.373Z,1856
2023-04-24T14:36:31.450Z,1873
2023-04-24T14:37:47.648Z,1884
2023-04-24T14:39:03.832Z,680
2023-04-24T14:40:20.131Z,1051
2023-04-24T14:41:36.328Z,646
2023-04-24T14:42:51.405Z,472
2023-04-24T14:44:07.718Z,416
2023-04-24T14:45:23.899Z,393
2023-04-24T14:46:39.976Z,410
2023-04-24T14:47:56.293Z,416
2023-04-24T14:49:12.000Z,376
2023-04-24T14:50:28.662Z,343
2023-04-24T14:51:44.725Z,371
2023-04-24T14:53:00.909Z,365
2023-04-24T14:54:17.097Z,337
2023-04-24T14:55:33.427Z,315
2023-04-24T14:56:49.603Z,275
2023-04-24T14:58:05.672Z,241
2023-04-24T14:59:20.876Z,213
2023-04-24T15:00:37.182Z,208
2023-04-24T15:01:53.247Z,213
2023-04-24T15:03:09.444Z,202
2023-04-24T15:04:25.641Z,213
2023-04-24T15:05:41.939Z,202
2023-04-24T15:06:58.129Z,202
2023-04-24T15:08:14.190Z,191
2023-04-24T15:09:30.508Z,202
2023-04-24T15:10:46.690Z,208
2023-04-24T15:12:02.767Z,213
2023-04-24T15:13:18.946Z,208
2023-04-24T15:14:35.144Z,202
2023-04-24T15:15:50.346Z,185
2023-04-24T15:17:06.532Z,151
2023-04-24T15:18:22.848Z,140
2023-04-24T15:19:39.029Z,151
2023-04-24T15:20:55.237Z,140
2023-04-24T15:22:11.410Z,129
2023-04-24T15:23:27.483Z,129
2023-04-24T15:24:43.672Z,140
2023-04-24T15:25:59.981Z,157
2023-04-24T15:27:16.037Z,151
2023-04-24T15:28:32.357Z,129
2023-04-24T15:29:48.427Z,112
2023-04-24T15:31:04.618Z,112
2023-04-24T15:32:19.807Z,101
2023-04-24T15:33:36.139Z,95
2023-04-24T15:34:52.314Z,95
2023-04-24T15:36:08.516Z,90
2023-04-24T15:37:24.702Z,95
2023-04-24T15:38:40.750Z,106
2023-04-24T15:39:57.078Z,106
2023-04-24T15:41:13.268Z,112
2023-04-24T15:42:29.332Z,135
2023-04-24T15:43:45.646Z,140
2023-04-24T15:45:01.701Z,123
2023-04-24T15:46:17.902Z,112
2023-04-24T15:47:34.206Z,106
2023-04-24T15:48:49.410Z,84
2023-04-24T15:50:05.469Z,73
2023-04-24T15:51:21.792Z,67
2023-04-24T15:52:37.853Z,67
2023-04-24T15:53:54.049Z,67
2023-04-24T15:55:10.222Z,73
2023-04-24T15:56:26.548Z,78
2023-04-24T15:57:42.600Z,78
2023-04-24T15:58:58.791Z,84
2023-04-24T16:00:15.118Z,112
2023-04-24T16:01:31.173Z,118
2023-04-24T16:02:47.363Z,101
2023-04-24T16:04:03.695Z,90
2023-04-24T16:05:18.761Z,90
2023-04-24T16:06:34.937Z,84
2023-04-24T16:07:51.132Z,73
2023-04-24T16:09:07.333Z,67
2023-04-24T16:10:23.653Z,61
2023-04-24T16:11:39.841Z,61
2023-04-24T16:12:56.021Z,50
2023-04-24T16:14:12.091Z,45
2023-04-24T16:15:28.279Z,45
2023-04-24T16:16:44.456Z,50
2023-04-24T16:18:00.651Z,61
2023-04-24T16:19:16.966Z,61
2023-04-24T16:20:33.021Z,56
2023-04-24T16:21:48.362Z,50
2023-04-24T16:23:04.548Z,39
2023-04-24T16:24:20.737Z,33
2023-04-24T16:25:36.940Z,33
2023-04-24T16:26:53.120Z,45
2023-04-24T16:28:09.167Z,56
2023-04-24T16:29:25.362Z,56
2023-04-24T16:30:41.540Z,56
2023-04-24T16:31:57.748Z,56
2023-04-24T16:33:13.935Z,61
2023-04-24T16:34:30.252Z,56
2023-04-24T16:35:46.439Z,56
2023-04-24T16:37:02.637Z,56
2023-04-24T16:38:17.703Z,56
2023-04-24T16:39:33.895Z,61
2023-04-24T16:40:50.078Z,56
2023-04-24T16:42:06.404Z,56
2023-04-24T16:43:22.446Z,50
2023-04-24T16:44:38.788Z,50
2023-04-24T16:45:53.859Z,56
2023-04-24T16:47:10.192Z,61
2023-04-24T16:48:26.369Z,73
2023-04-24T16:49:42.552Z,84
2023-04-24T16:50:58.758Z,84
2023-04-24T16:52:14.937Z,67
2023-04-24T16:53:30.973Z,56
2023-04-24T16:54:47.175Z,56
2023-04-24T16:56:03.361Z,45
2023-04-24T16:58:35.734Z,33
2023-04-24T16:59:51.930Z,22
2023-04-24T17:01:08.263Z,16
2023-04-24T17:02:23.330Z,11
2023-04-24T17:03:39.506Z,11
2023-04-24T17:04:55.846Z,16
2023-04-24T17:06:11.895Z,11
2023-04-24T17:07:28.073Z,11
2023-04-24T17:08:44.262Z,11
2023-04-24T17:10:00.457Z,11
2023-04-24T17:11:16.636Z,11
2023-04-24T17:12:32.982Z,11
2023-04-24T17:13:49.157Z,16
2023-04-24T17:15:05.210Z,28
2023-04-24T17:16:21.538Z,33
2023-04-24T17:18:53.766Z,39
2023-04-24T17:20:08.976Z,33
2023-04-24T17:21:25.172Z,33
2023-04-24T17:22:41.498Z,33
2023-04-24T17:23:57.549Z,28
2023-04-24T17:25:13.732Z,22
2023-04-24T17:26:30.079Z,22
2023-04-24T17:27:46.256Z,22
2023-04-24T17:29:02.451Z,22
2023-04-24T17:30:18.496Z,22
2023-04-24T17:31:34.674Z,22
2023-04-24T17:32:50.855Z,22
2023-04-24T17:34:07.054Z,22
2023-04-24T17:35:23.393Z,22
2023-04-24T17:36:38.454Z,22
2023-04-24T17:37:54.787Z,22
2023-04-24T17:39:10.984Z,16
2023-04-24T17:40:27.010Z,16
2023-04-24T17:41:43.359Z,22
2023-04-24T17:42:59.537Z,22
2023-04-24T17:44:15.573Z,16
2023-04-24T17:45:31.777Z,16
2023-04-24T17:46:47.959Z,11
2023-04-24T17:48:04.145Z,11
2023-04-24T17:49:20.322Z,11
2023-04-24T17:50:36.675Z,11
2023-04-24T17:51:52.865Z,11
2023-04-24T17:53:08.075Z,11
2023-04-24T17:54:24.108Z,11
2023-04-24T17:55:40.295Z,11
2023-04-24T17:56:56.489Z,5
2023-04-24T17:58:12.839Z,5
2023-04-24T17:59:28.862Z,11